Main page
Satellite images 15-day forecastsClimateMarine weather Cyclones Lightning AirportsFAQ Newsletter About
Weather : Europe Africa North America South America Asia Australia-Oceania Others
Languages Contact

Tehran, Iran

Mehrabad

latitude: 35-41N, longitude: 051-21E, elevation: 1204 m


METAR: OIII 021200Z 21006KT 9999 FEW040 31/M04 Q1017 A3004 NOSIG
TAF: OIII 021100Z 0212/0318 28005MPS 8000 FEW040 TEMPO 0312/0318 35009MPS 6000 FEW035CB SCT040 BKN100

Time: 15:56 (12:26 UTC)

Current weather observation

The report was made 26 minutes ago, at 12:00 UTC  
Wind 06 kt from the South/Southwest
Temperature 31°C
Humidity 10%
Pressure 1017 hPa
Visibility 10 km or more
Few clouds at a height of 4000 ft

Change units

Forecast

The report was made 01 hour and 26 minutes ago, at 11:00 UTC  
Forecast valid from 02 at 12 UTC to 03 at 18 UTC
Wind 10 kt from the West
Visibility 8000 m
Few clouds at a height of 4000 ft
Temporary
from 03 at 12 UTC to 03 at 18 UTC
Wind 17 kt from the North
Visibility 6000 m
Few clouds at a height of 3500 ft , Cumulonimbus.
Scattered clouds at a height of 4000 ft
Broken clouds at a height of 10000 ft
The information on this site is subject to a disclaimer
Weather : Europe Africa North America South America Asia Australia-Oceania Others
Satellite images 15-day forecastsClimateMarine weather Cyclones Lightning AirportsFAQ Languages Contact Newsletter About